Webster, Minnesota
Current Conditions -  °F | °C
As of 6:04 AM on Monday 22 Dec 2014 (Local Time) from KLVN Reporting Station
Haze Haze  
Wind Chill: 28°   Ceiling: NA
Heat Index: 36°   Visibility: 5mi
Dew Point: 36°   Wind: 10mph
Humidity: 100%   Direction: 150°SSE
Pressure: 29.66"   Gusts: 17mph
Location:  44.53°N, 93.35°W
Report Text: KLVN 221204Z AUTO 15009G15KT 5SM BR OV 02/02 A2966 RMK AO2
Loading
Personal Weather Stations






























Interactive Weather Map New forecast layout! Learn more

10-Day Weather Forecast

Advertisements
Track Severe Weather on mobile